createdAt,value
2019-04-26T00:00:15.920Z,95474.09
2019-04-26T00:02:48.825Z,95482.00
2019-04-26T00:05:18.526Z,95478.31
2019-04-26T00:07:48.558Z,95472.63
2019-04-26T00:10:22.846Z,95473.16
2019-04-26T00:12:55.802Z,95465.78
2019-04-26T00:15:43.418Z,95465.50
2019-04-26T00:18:13.301Z,95464.95
2019-04-26T00:20:42.870Z,95468.53
2019-04-26T00:23:14.310Z,95461.34
2019-04-26T00:25:43.877Z,95461.18
2019-04-26T00:28:14.473Z,95456.61
2019-04-26T00:30:44.808Z,95449.72
2019-04-26T00:33:15.754Z,95445.80
2019-04-26T00:35:47.822Z,95445.97
2019-04-26T00:38:16.795Z,95442.91
2019-04-26T00:40:47.584Z,95446.00
2019-04-26T00:43:18.440Z,95448.35
2019-04-26T00:45:52.736Z,95448.41
2019-04-26T00:48:24.338Z,95441.92
2019-04-26T00:50:55.741Z,95449.20
2019-04-26T00:53:28.255Z,95450.39
2019-04-26T00:55:59.375Z,95450.93
2019-04-26T00:58:30.136Z,95456.75
2019-04-26T01:01:01.039Z,95456.30
2019-04-26T01:03:30.677Z,95452.11
2019-04-26T01:06:01.809Z,95447.70
2019-04-26T01:08:31.333Z,95457.42
2019-04-26T01:11:00.844Z,95456.53
2019-04-26T01:13:30.483Z,95449.47
2019-04-26T01:16:00.053Z,95452.13
2019-04-26T01:18:29.588Z,95450.89
2019-04-26T01:21:02.755Z,95438.53
2019-04-26T01:23:35.892Z,95441.98
2019-04-26T01:26:10.929Z,95448.80
2019-04-26T01:28:46.018Z,95434.69
2019-04-26T01:31:15.881Z,95446.95
2019-04-26T01:33:46.177Z,95443.70
2019-04-26T01:36:18.074Z,95441.62
2019-04-26T01:38:51.372Z,95439.47
2019-04-26T01:41:30.929Z,95435.55
2019-04-26T01:44:07.899Z,95438.88
2019-04-26T01:46:43.782Z,95441.50
2019-04-26T01:49:16.284Z,95431.74
2019-04-26T01:51:54.390Z,95433.67
2019-04-26T01:54:27.801Z,95431.00
2019-04-26T01:57:00.365Z,95430.03
2019-04-26T01:59:29.952Z,95424.45
2019-04-26T02:02:04.102Z,95441.72
2019-04-26T02:04:35.372Z,95438.11
2019-04-26T02:07:05.096Z,95439.48
2019-04-26T02:09:34.625Z,95436.72
2019-04-26T02:12:06.116Z,95432.29
2019-04-26T02:14:35.750Z,95429.75
2019-04-26T02:17:05.599Z,95424.46
2019-04-26T02:19:35.281Z,95430.45
2019-04-26T02:22:07.443Z,95429.03
2019-04-26T02:24:41.646Z,95429.21
2019-04-26T02:27:19.127Z,95421.31
2019-04-26T02:29:48.721Z,95423.95
2019-04-26T02:32:18.687Z,95428.65
2019-04-26T02:34:48.446Z,95424.77
2019-04-26T02:37:18.140Z,95422.70
2019-04-26T02:39:47.711Z,95420.02
2019-04-26T02:42:24.035Z,95412.35
2019-04-26T02:44:58.225Z,95416.72
2019-04-26T02:47:39.122Z,95422.67
2019-04-26T02:50:19.475Z,95418.84
2019-04-26T02:52:52.062Z,95425.09
2019-04-26T02:55:42.692Z,95421.55
2019-04-26T02:58:13.867Z,95429.52
2019-04-26T03:00:43.427Z,95433.80
2019-04-26T03:03:14.632Z,95436.94
2019-04-26T03:05:45.982Z,95425.34
2019-04-26T03:08:17.637Z,95428.09
2019-04-26T03:10:50.112Z,95432.03
2019-04-26T03:13:24.258Z,95432.88
2019-04-26T03:15:59.462Z,95426.52
2019-04-26T03:18:43.032Z,95427.19
2019-04-26T03:21:24.686Z,95415.36
2019-04-26T03:24:06.061Z,95417.94
2019-04-26T03:27:02.480Z,95421.73
2019-04-26T03:29:40.880Z,95428.09
2019-04-26T03:32:16.205Z,95429.58
2019-04-26T03:35:17.729Z,95445.91
2019-04-26T03:38:00.441Z,95447.26
2019-04-26T03:40:49.831Z,95464.25
2019-04-26T03:43:39.307Z,95457.22
2019-04-26T03:46:14.297Z,95451.33
2019-04-26T03:49:01.841Z,95462.81
2019-04-26T03:51:39.079Z,95463.06
2019-04-26T03:54:16.994Z,95462.61
2019-04-26T03:56:53.654Z,95464.45
2019-04-26T03:59:30.423Z,95457.97
2019-04-26T04:02:04.530Z,95463.39
2019-04-26T04:04:40.662Z,95467.00
2019-04-26T04:07:12.837Z,95462.86
2019-04-26T04:09:46.705Z,95459.27
2019-04-26T04:12:26.288Z,95465.58
2019-04-26T04:15:08.132Z,95459.55
2019-04-26T04:17:45.348Z,95450.27
2019-04-26T04:20:33.303Z,95455.75
2019-04-26T04:23:08.466Z,95455.10
2019-04-26T04:25:49.213Z,95455.88
2019-04-26T04:28:38.624Z,95458.84
2019-04-26T04:31:17.996Z,95453.50
2019-04-26T04:33:56.129Z,95449.49
2019-04-26T04:36:28.912Z,95442.56
2019-04-26T04:39:12.755Z,95451.45
2019-04-26T04:42:03.331Z,95458.77
2019-04-26T04:45:08.899Z,95457.05
2019-04-26T04:47:57.755Z,95449.75
2019-04-26T04:50:34.695Z,95446.84
2019-04-26T04:53:13.172Z,95447.23
2019-04-26T04:55:46.272Z,95443.87
2019-04-26T04:58:18.985Z,95443.27
2019-04-26T05:01:31.902Z,95439.48
2019-04-26T05:04:17.288Z,95444.24
2019-04-26T05:07:10.865Z,95444.01
2019-04-26T05:09:46.070Z,95431.48
2019-04-26T05:12:31.387Z,95432.50
2019-04-26T05:15:22.452Z,95434.51
2019-04-26T05:18:01.122Z,95426.19
2019-04-26T05:20:34.710Z,95433.16
2019-04-26T05:23:15.538Z,95428.71
2019-04-26T05:26:06.212Z,95430.91
2019-04-26T05:28:42.845Z,95426.55
2019-04-26T05:31:35.351Z,95415.63
2019-04-26T05:34:24.461Z,95413.47
2019-04-26T05:37:13.090Z,95408.43
2019-04-26T05:40:02.655Z,95407.50
2019-04-26T05:42:56.522Z,95413.16
2019-04-26T05:45:58.993Z,95402.98
2019-04-26T05:48:57.899Z,95405.04
2019-04-26T05:51:53.604Z,95390.99
2019-04-26T05:54:45.958Z,95394.73
2019-04-26T05:57:31.466Z,95398.52
2019-04-26T06:00:05.676Z,95396.17
2019-04-26T06:03:03.779Z,95389.41
2019-04-26T06:05:40.746Z,95381.05
2019-04-26T06:08:36.415Z,95380.86
2019-04-26T06:11:13.556Z,95381.15
2019-04-26T06:13:47.707Z,95376.23
2019-04-26T06:16:21.931Z,95368.39
2019-04-26T06:19:21.104Z,95366.32
2019-04-26T06:21:53.840Z,95372.56
2019-04-26T06:28:29.232Z,95364.88
2019-04-26T06:30:45.043Z,95355.70
2019-04-26T06:33:11.511Z,95358.91
2019-04-26T06:35:45.018Z,95366.50
2019-04-26T06:38:43.976Z,95360.13
2019-04-26T06:44:24.113Z,95345.77
2019-04-26T06:47:01.750Z,95349.96
2019-04-26T06:49:53.195Z,95341.33
2019-04-26T06:52:25.797Z,95344.14
2019-04-26T06:55:11.988Z,95327.61
2019-04-26T06:58:07.265Z,95325.67
2019-04-26T07:01:11.837Z,95325.44
2019-04-26T07:04:00.424Z,95331.80
2019-04-26T07:06:35.148Z,95329.63
2019-04-26T07:09:11.655Z,95314.52
2019-04-26T07:12:11.603Z,95319.88
2019-04-26T07:15:08.849Z,95305.13
2019-04-26T07:17:59.496Z,95317.08
2019-04-26T07:20:36.356Z,95306.03
2019-04-26T07:23:19.473Z,95313.20
2019-04-26T07:25:59.209Z,95312.27
2019-04-26T07:28:48.947Z,95312.73
2019-04-26T07:31:30.489Z,95309.15
2019-04-26T07:34:23.755Z,95304.96
2019-04-26T07:37:31.114Z,95303.42
2019-04-26T07:40:11.547Z,95297.47
2019-04-26T07:42:58.621Z,95293.47
2019-04-26T07:45:56.715Z,95284.39
2019-04-26T07:48:34.959Z,95295.29
2019-04-26T07:51:16.546Z,95285.42
2019-04-26T07:54:05.052Z,95286.61
2019-04-26T07:57:08.839Z,95282.47
2019-04-26T08:00:06.528Z,95288.63
2019-04-26T08:02:55.992Z,95278.81
2019-04-26T08:05:42.402Z,95275.25
2019-04-26T08:08:15.052Z,95274.17
2019-04-26T08:10:59.684Z,95273.27
2019-04-26T08:13:32.268Z,95276.41
2019-04-26T08:16:33.085Z,95269.50
2019-04-26T08:22:11.530Z,95262.84
2019-04-26T08:24:31.905Z,95270.92
2019-04-26T08:27:18.837Z,95259.92
2019-04-26T08:29:44.713Z,95258.92
2019-04-26T08:32:23.619Z,95253.19
2019-04-26T08:35:08.142Z,95258.20
2019-04-26T08:37:43.451Z,95255.08
2019-04-26T08:40:23.088Z,95257.69
2019-04-26T08:42:53.328Z,95248.77
2019-04-26T08:45:45.607Z,95246.68
2019-04-26T08:48:29.986Z,95251.89
2019-04-26T08:50:52.984Z,95243.48
2019-04-26T08:53:25.590Z,95244.54
2019-04-26T08:55:57.917Z,95235.30
2019-04-26T08:58:29.990Z,95230.87
2019-04-26T09:01:04.197Z,95231.42
2019-04-26T09:03:41.078Z,95226.93
2019-04-26T09:06:20.378Z,95222.41
2019-04-26T09:08:52.080Z,95221.13
2019-04-26T09:11:30.200Z,95211.66
2019-04-26T09:13:57.957Z,95221.56
2019-04-26T09:16:27.687Z,95209.73
2019-04-26T09:18:59.560Z,95207.83
2019-04-26T09:21:32.981Z,95206.50
2019-04-26T09:24:04.126Z,95197.98
2019-04-26T09:26:42.369Z,95192.88
2019-04-26T09:29:17.280Z,95193.31
2019-04-26T09:31:50.439Z,95184.92
2019-04-26T09:34:35.000Z,95176.22
2019-04-26T09:37:04.694Z,95176.12
2019-04-26T09:39:34.359Z,95160.06
2019-04-26T09:42:22.924Z,95145.41
2019-04-26T09:45:09.163Z,95156.41
2019-04-26T09:47:46.713Z,95156.77
2019-04-26T09:50:18.081Z,95140.48
2019-04-26T09:52:58.212Z,95146.78
2019-04-26T09:55:35.207Z,95140.83
2019-04-26T09:57:59.521Z,95125.59
2019-04-26T10:00:30.286Z,95129.31
2019-04-26T10:03:05.555Z,95130.24
2019-04-26T10:05:33.377Z,95120.21
2019-04-26T10:08:03.392Z,95117.95
2019-04-26T10:10:35.269Z,95096.42
2019-04-26T10:13:22.976Z,95100.42
2019-04-26T10:15:58.196Z,95101.57
2019-04-26T10:18:26.282Z,95098.50
2019-04-26T10:20:55.852Z,95099.48
2019-04-26T10:23:25.427Z,95093.55
2019-04-26T10:25:55.265Z,95094.84
2019-04-26T10:28:25.153Z,95081.52
2019-04-26T10:30:54.958Z,95077.77
2019-04-26T10:33:24.589Z,95067.27
2019-04-26T10:35:56.749Z,95079.67
2019-04-26T10:38:25.709Z,95073.03
2019-04-26T10:40:55.186Z,95064.59
2019-04-26T10:43:26.000Z,95063.98
2019-04-26T10:45:55.896Z,95067.25
2019-04-26T10:48:25.700Z,95062.05
2019-04-26T10:50:55.411Z,95052.39
2019-04-26T10:53:42.807Z,95052.59
2019-04-26T10:56:24.196Z,95051.18
2019-04-26T10:58:56.128Z,95045.46
2019-04-26T11:01:27.017Z,95036.22
2019-04-26T11:03:56.641Z,95042.52
2019-04-26T11:06:27.901Z,95034.97
2019-04-26T11:08:57.663Z,95037.66
2019-04-26T11:11:27.345Z,95036.25
2019-04-26T11:13:57.610Z,95022.91
2019-04-26T11:16:27.619Z,95027.12
2019-04-26T11:19:00.871Z,95031.34
2019-04-26T11:21:28.827Z,95030.76
2019-04-26T11:23:58.487Z,95026.13
2019-04-26T11:26:31.137Z,95020.82
2019-04-26T11:28:59.535Z,95024.02
2019-04-26T11:31:29.304Z,95017.38
2019-04-26T11:34:05.304Z,95018.05
2019-04-26T11:36:31.423Z,95017.47
2019-04-26T11:39:05.005Z,95016.03
2019-04-26T11:41:37.634Z,95006.57
2019-04-26T11:44:05.784Z,94985.30
2019-04-26T11:46:44.701Z,95011.44
2019-04-26T11:49:07.166Z,95000.16
2019-04-26T11:51:37.772Z,94997.64
2019-04-26T11:54:08.656Z,94997.19
2019-04-26T11:56:38.852Z,94997.62
2019-04-26T11:59:08.694Z,94985.13
2019-04-26T12:01:40.454Z,94979.48
2019-04-26T12:04:20.206Z,94987.94
2019-04-26T12:07:00.426Z,94989.39
2019-04-26T12:09:37.638Z,94973.73
2019-04-26T12:12:09.253Z,94952.66
2019-04-26T12:14:38.354Z,94965.98
2019-04-26T12:17:07.804Z,94960.82
2019-04-26T12:19:37.601Z,94962.50
2019-04-26T12:22:08.448Z,94954.98
2019-04-26T12:24:39.894Z,94956.06
2019-04-26T12:27:10.436Z,94942.95
2019-04-26T12:29:40.427Z,94947.59
2019-04-26T12:32:09.993Z,94938.73
2019-04-26T12:34:39.562Z,94940.27
2019-04-26T12:37:12.591Z,94930.98
2019-04-26T12:39:41.493Z,94933.58
2019-04-26T12:42:12.285Z,94919.51
2019-04-26T12:44:47.462Z,94919.02
2019-04-26T12:47:24.606Z,94912.78
2019-04-26T12:49:58.509Z,94909.92
2019-04-26T12:52:25.647Z,94899.80
2019-04-26T12:54:57.612Z,94904.88
2019-04-26T12:57:26.498Z,94907.79
2019-04-26T12:59:57.551Z,94904.23
2019-04-26T13:02:27.396Z,94909.61
2019-04-26T13:04:56.921Z,94901.28
2019-04-26T13:07:26.339Z,94902.70
2019-04-26T13:10:06.182Z,94895.66
2019-04-26T13:12:41.488Z,94897.09
2019-04-26T13:15:37.784Z,94889.81
2019-04-26T13:18:11.074Z,94879.64
2019-04-26T13:20:38.563Z,94885.59
2019-04-26T13:23:07.987Z,94888.18
2019-04-26T13:25:40.497Z,94877.51
2019-04-26T13:28:08.878Z,94887.41
2019-04-26T13:30:40.098Z,94876.30
2019-04-26T13:33:10.092Z,94886.84
2019-04-26T13:35:41.345Z,94887.95
2019-04-26T13:38:11.338Z,94883.69
2019-04-26T13:40:40.979Z,94881.41
2019-04-26T13:43:10.607Z,94879.89
2019-04-26T13:45:41.925Z,94874.44
2019-04-26T13:48:31.092Z,94870.06
2019-04-26T13:51:20.108Z,94864.28
2019-04-26T13:53:49.675Z,94865.19
2019-04-26T13:56:19.167Z,94863.56
2019-04-26T13:58:48.780Z,94873.65
2019-04-26T14:01:19.679Z,94870.52
2019-04-26T14:03:49.797Z,94871.20
2019-04-26T14:06:19.333Z,94871.17
2019-04-26T14:08:48.833Z,94862.42
2019-04-26T14:11:20.575Z,94860.30
2019-04-26T14:13:49.764Z,94871.39
2019-04-26T14:16:21.242Z,94861.20
2019-04-26T14:18:50.804Z,94867.19
2019-04-26T14:21:20.425Z,94863.02
2019-04-26T14:23:57.119Z,94859.92
2019-04-26T14:26:28.430Z,94858.28
2019-04-26T14:28:59.439Z,94857.39
2019-04-26T14:31:29.143Z,94861.34
2019-04-26T14:34:01.192Z,94854.48
2019-04-26T14:36:33.267Z,94850.78
2019-04-26T14:39:10.727Z,94856.45
2019-04-26T14:41:40.251Z,94857.17
2019-04-26T14:44:15.857Z,94847.58
2019-04-26T14:46:48.571Z,94843.80
2019-04-26T14:49:12.323Z,94852.14
2019-04-26T14:51:42.017Z,94844.27
2019-04-26T14:54:12.862Z,94844.34
2019-04-26T15:12:24.016Z,94831.04
2019-04-26T15:14:56.796Z,94836.74
2019-04-26T15:17:28.068Z,94834.22
2019-04-26T15:19:57.481Z,94839.42
2019-04-26T15:22:26.973Z,94840.95
2019-04-26T15:24:56.592Z,94842.16
2019-04-26T15:27:26.015Z,94838.19
2019-04-26T15:29:57.175Z,94835.69
2019-04-26T15:32:28.001Z,94829.31
2019-04-26T15:34:58.589Z,94827.31
2019-04-26T15:37:28.649Z,94830.71
2019-04-26T15:40:12.794Z,94837.86
2019-04-26T15:43:03.039Z,94829.48
2019-04-26T15:45:48.487Z,94833.91
2019-04-26T15:48:28.637Z,94836.72
2019-04-26T15:50:59.291Z,94828.67
2019-04-26T15:53:28.911Z,94835.71
2019-04-26T15:55:58.405Z,94836.66
2019-04-26T15:58:28.115Z,94837.53
2019-04-26T16:00:57.763Z,94834.39
2019-04-26T16:03:27.433Z,94836.97
2019-04-26T16:05:59.151Z,94831.05
2019-04-26T16:08:28.345Z,94832.70
2019-04-26T16:10:57.970Z,94836.08
2019-04-26T16:13:27.554Z,94831.58
2019-04-26T16:15:57.123Z,94833.83
2019-04-26T16:18:26.832Z,94831.80
2019-04-26T16:20:56.468Z,94829.31
2019-04-26T16:23:38.206Z,94829.31
2019-04-26T16:25:57.857Z,94821.07
2019-04-26T16:28:30.770Z,94826.33
2019-04-26T16:31:18.357Z,94828.18
2019-04-26T16:33:49.492Z,94828.75
2019-04-26T16:36:19.058Z,94836.21
2019-04-26T16:38:54.283Z,94830.18
2019-04-26T16:41:21.908Z,94829.55
2019-04-26T16:43:53.494Z,94830.20
2019-04-26T16:46:24.666Z,94826.80
2019-04-26T16:48:56.706Z,94836.34
2019-04-26T16:51:24.913Z,94835.05
2019-04-26T16:54:06.567Z,94839.50
2019-04-26T16:58:56.939Z,94838.64
2019-04-26T17:01:26.433Z,94838.94
2019-04-26T17:03:57.261Z,94841.93
2019-04-26T17:06:26.832Z,94839.34
2019-04-26T17:09:01.004Z,94841.73
2019-04-26T17:09:38.416Z,94839.09
2019-04-26T17:11:30.223Z,94840.42
2019-04-26T17:14:04.112Z,94836.52
2019-04-26T17:16:34.712Z,94838.64
2019-04-26T17:19:02.642Z,94834.99
2019-04-26T17:21:34.727Z,94835.02
2019-04-26T17:24:09.514Z,94844.97
2019-04-26T17:26:39.235Z,94842.95
2019-04-26T17:29:08.799Z,94850.60
2019-04-26T17:31:38.498Z,94841.19
2019-04-26T17:34:08.181Z,94843.30
2019-04-26T17:36:37.682Z,94841.73
2019-04-26T17:39:16.813Z,94841.23
2019-04-26T17:41:49.947Z,94851.73
2019-04-26T17:44:14.187Z,94853.30
2019-04-26T17:46:48.986Z,94862.99
2019-04-26T17:49:16.164Z,94866.39
2019-04-26T17:51:45.655Z,94880.78
2019-04-26T17:54:41.776Z,94878.68
2019-04-26T17:56:46.645Z,94889.16
2019-04-26T17:59:31.363Z,94891.48
2019-04-26T18:01:52.139Z,94897.24
2019-04-26T18:04:31.509Z,94901.69
2019-04-26T18:06:57.745Z,94901.42
2019-04-26T18:09:40.477Z,94902.84
2019-04-26T18:11:55.316Z,94914.05
2019-04-26T18:14:30.314Z,94920.24
2019-04-26T18:17:01.386Z,94926.30
2019-04-26T18:19:33.395Z,94922.05
2019-04-26T18:22:14.640Z,94920.92
2019-04-26T18:24:44.146Z,94936.20
2019-04-26T18:27:14.787Z,94937.96
2019-04-26T18:29:44.478Z,94946.68
2019-04-26T18:32:14.216Z,94939.27
2019-04-26T18:34:43.731Z,94948.81
2019-04-26T18:37:13.736Z,94956.86
2019-04-26T18:39:43.263Z,94967.86
2019-04-26T18:42:13.955Z,94974.18
2019-04-26T18:44:47.941Z,94971.63
2019-04-26T18:47:20.460Z,94968.14
2019-04-26T18:49:52.098Z,94971.53
2019-04-26T18:52:23.316Z,94976.73
2019-04-26T18:54:53.830Z,94981.51
2019-04-26T18:57:23.824Z,94978.27
2019-04-26T18:59:53.312Z,94986.94
2019-04-26T19:02:24.695Z,94984.43
2019-04-26T19:04:54.191Z,94986.41
2019-04-26T19:07:31.820Z,94988.80
2019-04-26T19:09:59.425Z,94996.66
2019-04-26T19:12:27.600Z,94989.89
2019-04-26T19:15:03.582Z,94996.38
2019-04-26T19:17:40.463Z,94992.30
2019-04-26T19:20:30.060Z,94997.45
2019-04-26T19:23:02.672Z,95000.64
2019-04-26T19:25:35.642Z,95000.19
2019-04-26T19:28:08.157Z,94998.75
2019-04-26T19:30:39.864Z,95004.66
2019-04-26T19:33:11.739Z,95009.13
2019-04-26T19:35:39.421Z,94997.50
2019-04-26T19:38:13.319Z,94991.71
2019-04-26T19:40:46.085Z,95004.98
2019-04-26T19:43:13.057Z,94997.27
2019-04-26T19:46:01.581Z,95005.23
2019-04-26T19:48:32.765Z,95002.52
2019-04-26T19:51:04.185Z,95005.86
2019-04-26T19:53:35.347Z,95004.80
2019-04-26T19:56:12.371Z,95006.62
2019-04-26T19:58:45.855Z,95008.68
2019-04-26T20:01:16.458Z,95002.96
2019-04-26T20:03:47.361Z,95004.03
2019-04-26T20:06:18.846Z,95004.45
2019-04-26T20:08:49.697Z,95006.97
2019-04-26T20:11:20.218Z,95000.44
2019-04-26T20:13:51.905Z,95004.27
2019-04-26T20:16:22.629Z,95011.56
2019-04-26T20:18:52.395Z,95009.98
2019-04-26T20:21:23.588Z,95006.88
2019-04-26T20:23:54.587Z,95008.84
2019-04-26T20:26:24.439Z,95010.48
2019-04-26T20:28:53.878Z,95012.39
2019-04-26T20:31:30.943Z,95014.89
2019-04-26T20:34:01.528Z,95015.75
2019-04-26T20:36:37.191Z,95023.34
2019-04-26T20:39:04.004Z,95019.70
2019-04-26T20:41:35.216Z,95017.94
2019-04-26T20:44:09.597Z,95011.91
2019-04-26T20:46:37.747Z,95015.48
2019-04-26T20:49:09.113Z,95009.72
2019-04-26T20:51:42.439Z,95010.39
2019-04-26T20:54:12.000Z,95006.20
2019-04-26T20:56:42.136Z,95011.52
2019-04-26T20:59:11.871Z,95014.88
2019-04-26T21:01:43.583Z,95014.97
2019-04-26T21:04:33.879Z,95015.41
2019-04-26T21:06:44.206Z,95013.80
2019-04-26T21:09:15.013Z,95015.36
2019-04-26T21:11:44.800Z,95022.41
2019-04-26T21:14:14.441Z,95023.84
2019-04-26T21:16:49.496Z,95029.66
2019-04-26T21:19:19.069Z,95020.97
2019-04-26T21:21:48.193Z,95024.50
2019-04-26T21:24:19.609Z,95030.16
2019-04-26T21:26:54.658Z,95035.31
2019-04-26T21:29:41.600Z,95028.18
2019-04-26T21:32:24.557Z,95033.44
2019-04-26T21:34:56.103Z,95032.76
2019-04-26T21:37:34.181Z,95023.99
2019-04-26T21:40:16.864Z,95028.43
2019-04-26T21:42:45.432Z,95039.65
2019-04-26T21:45:16.209Z,95036.25
2019-04-26T21:47:45.805Z,95028.81
2019-04-26T21:50:15.380Z,95038.50
2019-04-26T21:52:45.660Z,95034.73
2019-04-26T21:55:16.687Z,95046.48
2019-04-26T21:57:46.445Z,95051.80
2019-04-26T22:00:22.718Z,95042.94
2019-04-26T22:02:54.139Z,95044.98
2019-04-26T22:05:23.879Z,95050.39
2019-04-26T22:07:53.511Z,95050.64
2019-04-26T22:10:27.607Z,95056.44
2019-04-26T22:12:57.162Z,95055.73
2019-04-26T22:15:29.435Z,95055.35
2019-04-26T22:18:10.255Z,95057.66
2019-04-26T22:20:44.790Z,95053.97
2019-04-26T22:23:16.336Z,95055.35
2019-04-26T22:25:48.632Z,95055.56
2019-04-26T22:28:18.200Z,95057.73
2019-04-26T22:30:47.787Z,95048.25
2019-04-26T22:33:17.392Z,95052.71
2019-04-26T22:35:50.446Z,95040.70
2019-04-26T22:38:23.568Z,95053.87
2019-04-26T22:40:54.687Z,95045.78
2019-04-26T22:43:22.931Z,95044.52
2019-04-26T22:46:10.078Z,95053.17
2019-04-26T22:48:41.319Z,95048.93
2019-04-26T22:51:10.818Z,95040.52
2019-04-26T22:53:40.239Z,95045.06
2019-04-26T22:56:09.674Z,95045.78
2019-04-26T22:58:39.312Z,95029.43
2019-04-26T23:01:09.066Z,95036.38
2019-04-26T23:03:41.105Z,95043.42
2019-04-26T23:06:11.580Z,95039.10
2019-04-26T23:08:41.334Z,95048.65
2019-04-26T23:11:11.104Z,95038.11
2019-04-26T23:13:44.388Z,95042.28
2019-04-26T23:16:30.371Z,95035.73
2019-04-26T23:19:01.637Z,95042.13
2019-04-26T23:21:33.940Z,95029.19
2019-04-26T23:24:03.952Z,95024.58
2019-04-26T23:26:33.559Z,95035.51
2019-04-26T23:29:08.568Z,95018.40
2019-04-26T23:31:37.442Z,95029.73
2019-04-26T23:34:06.890Z,95029.88
2019-04-26T23:36:36.460Z,95023.94
2019-04-26T23:39:11.658Z,95029.75
2019-04-26T23:41:41.608Z,95027.03
2019-04-26T23:44:10.692Z,95020.75
2019-04-26T23:46:40.328Z,95011.62
2019-04-26T23:49:11.173Z,95015.16
2019-04-26T23:51:42.953Z,95009.98
2019-04-26T23:54:13.626Z,95009.03
2019-04-26T23:56:43.821Z,95006.31
2019-04-26T23:59:15.021Z,95002.29
